Time;durP1;ratioP1;P1;durP2;ratioP2;P2;SDS_P1;SDS_P2;PMS_P1;PMS_P2;Temp;Humidity;BMP_temperature;BMP_pressure;BME280_temperature;BME280_humidity;BME280_pressure;Samples;Min_cycle;Max_cycle;Signal;HPM_P1;HPM_P2
2022/12/24 00:00:24;;;;;;;8.23;4.35;;;;;;;;;;5036623;28;20045;-25
2022/12/24 00:02:50;;;;;;;7.07;2.90;;;;;;;;;;5035783;28;20045;-23
2022/12/24 00:05:16;;;;;;;6.60;2.72;;;;;;;;;;5036245;28;20174;-24
2022/12/24 00:07:42;;;;;;;5.68;3.33;;;;;;;;;;5036449;28;20109;-27
2022/12/24 00:10:09;;;;;;;5.47;2.53;;;;;;;;;;5036102;28;20129;-24
2022/12/24 00:12:36;;;;;;;6.78;3.10;;;;;;;;;;5035806;28;20397;-23
2022/12/24 00:15:03;;;;;;;5.60;2.95;;;;;;;;;;5036832;28;20026;-22
2022/12/24 00:17:29;;;;;;;7.15;2.95;;;;;;;;;;5036060;28;20026;-24
2022/12/24 00:19:55;;;;;;;5.57;2.70;;;;;;;;;;5035967;28;20026;-23
2022/12/24 00:22:22;;;;;;;7.07;4.03;;;;;;;;;;5035832;28;20029;-22
2022/12/24 00:24:48;;;;;;;5.80;3.17;;;;;;;;;;5035562;28;20033;-24
2022/12/24 00:27:14;;;;;;;5.70;2.80;;;;;;;;;;5035557;28;20468;-24
2022/12/24 00:29:40;;;;;;;5.65;3.33;;;;;;;;;;5035451;28;20487;-23
2022/12/24 00:32:09;;;;;;;4.45;2.85;;;;;;;;;;5035925;28;20022;-22
2022/12/24 00:34:38;;;;;;;4.63;2.60;;;;;;;;;;5035390;28;20121;-22
2022/12/24 00:37:05;;;;;;;5.35;2.90;;;;;;;;;;5035643;28;20033;-23
2022/12/24 00:39:31;;;;;;;5.60;3.05;;;;;;;;;;5035612;28;20038;-28
2022/12/24 00:41:57;;;;;;;5.45;3.15;;;;;;;;;;5035493;28;20040;-23
2022/12/24 00:44:23;;;;;;;6.95;3.15;;;;;;;;;;5035259;28;20085;-25
2022/12/24 00:46:49;;;;;;;9.85;2.92;;;;;;;;;;5035130;28;20026;-22
2022/12/24 00:49:16;;;;;;;6.13;2.50;;;;;;;;;;5050774;28;20072;-24
2022/12/24 00:51:42;;;;;;;7.18;3.40;;;;;;;;;;5035124;28;20025;-23
2022/12/24 00:54:08;;;;;;;5.05;2.95;;;;;;;;;;5035002;28;20052;-23
2022/12/24 00:56:34;;;;;;;6.75;2.75;;;;;;;;;;5035097;28;20036;-22
2022/12/24 00:59:01;;;;;;;6.63;2.65;;;;;;;;;;5035067;28;20029;-22
2022/12/24 01:01:27;;;;;;;3.65;2.80;;;;;;;;;;5034987;28;20072;-27
2022/12/24 01:05:09;;;;;;;6.45;2.53;;;;;;;;;;5034648;28;20045;-23
2022/12/24 01:06:43;;;;;;;6.30;3.88;;;;;;;;;;5034881;28;20124;-24
2022/12/24 01:09:09;;;;;;;5.25;2.88;;;;;;;;;;5034548;28;20503;-26
2022/12/24 01:11:35;;;;;;;7.10;2.85;;;;;;;;;;5035639;28;20072;-23
2022/12/24 01:14:01;;;;;;;6.63;2.75;;;;;;;;;;5034718;28;20013;-24
2022/12/24 01:16:27;;;;;;;9.13;3.65;;;;;;;;;;5035027;28;20522;-24
2022/12/24 01:18:54;;;;;;;7.38;3.35;;;;;;;;;;5035035;28;20033;-25
2022/12/24 01:21:20;;;;;;;4.43;2.45;;;;;;;;;;5034998;28;20365;-23
2022/12/24 01:23:46;;;;;;;6.13;3.33;;;;;;;;;;5034651;28;20053;-23
2022/12/24 01:26:12;;;;;;;5.22;2.92;;;;;;;;;;5034912;28;20018;-25
2022/12/24 01:28:38;;;;;;;5.93;3.30;;;;;;;;;;5034850;28;20037;-24
2022/12/24 01:31:15;;;;;;;5.90;2.85;;;;;;;;;;5033700;28;20037;-23
2022/12/24 01:33:41;;;;;;;5.22;3.17;;;;;;;;;;5050146;28;20021;-23
2022/12/24 01:36:07;;;;;;;7.78;3.28;;;;;;;;;;5034831;28;20053;-27
2022/12/24 01:38:34;;;;;;;6.88;2.92;;;;;;;;;;5034518;28;20075;-22
2022/12/24 01:43:45;;;;;;;9.10;3.72;;;;;;;;;;5034735;28;20071;-23
2022/12/24 01:46:16;;;;;;;7.18;3.25;;;;;;;;;;5034505;28;20029;-23
2022/12/24 01:48:44;;;;;;;7.05;3.92;;;;;;;;;;5034751;28;20164;-24
2022/12/24 01:51:26;;;;;;;6.53;3.50;;;;;;;;;;5034481;28;20037;-23
2022/12/24 01:53:56;;;;;;;6.07;3.00;;;;;;;;;;5034418;28;20098;-23
2022/12/24 01:56:23;;;;;;;7.03;3.30;;;;;;;;;;5034656;28;20155;-23
2022/12/24 01:58:52;;;;;;;9.00;3.65;;;;;;;;;;5034619;28;20471;-22
2022/12/24 02:01:18;;;;;;;5.40;3.28;;;;;;;;;;5034649;28;20399;-23
2022/12/24 02:03:45;;;;;;;5.50;3.17;;;;;;;;;;5034097;28;20042;-24
2022/12/24 02:06:14;;;;;;;8.52;3.22;;;;;;;;;;5034871;28;20175;-25
2022/12/24 02:08:40;;;;;;;8.87;2.90;;;;;;;;;;5034474;28;20083;-23
2022/12/24 02:11:14;;;;;;;6.80;2.90;;;;;;;;;;5034247;28;20033;-23
2022/12/24 02:13:42;;;;;;;6.68;3.58;;;;;;;;;;5034430;28;20057;-23
2022/12/24 02:16:27;;;;;;;8.80;3.45;;;;;;;;;;5034141;28;20039;-22
2022/12/24 02:19:11;;;;;;;10.05;3.33;;;;;;;;;;5034169;28;20061;-23
2022/12/24 02:21:53;;;;;;;7.00;3.15;;;;;;;;;;5037302;28;20057;-25
2022/12/24 02:24:26;;;;;;;7.88;3.58;;;;;;;;;;5038699;28;20022;-23
2022/12/24 02:26:55;;;;;;;4.97;2.78;;;;;;;;;;5038151;28;20025;-23
2022/12/24 02:29:30;;;;;;;8.15;3.05;;;;;;;;;;5037730;28;20029;-25
2022/12/24 02:31:59;;;;;;;6.03;3.15;;;;;;;;;;5053408;28;20461;-22
2022/12/24 02:34:46;;;;;;;5.13;3.10;;;;;;;;;;5038180;28;20033;-23
2022/12/24 02:37:16;;;;;;;6.80;4.00;;;;;;;;;;5037954;28;20056;-24
2022/12/24 02:39:45;;;;;;;3.05;2.20;;;;;;;;;;5038223;28;20100;-23
2022/12/24 02:42:12;;;;;;;5.15;3.17;;;;;;;;;;5037501;28;20112;-23
2022/12/24 02:44:51;;;;;;;6.35;2.58;;;;;;;;;;5037753;28;20357;-23
2022/12/24 02:47:19;;;;;;;5.50;3.53;;;;;;;;;;5037484;28;20026;-23
2022/12/24 02:49:47;;;;;;;8.00;3.83;;;;;;;;;;5037367;28;20420;-23
2022/12/24 02:52:32;;;;;;;8.20;3.17;;;;;;;;;;5037312;28;20446;-23
2022/12/24 02:54:59;;;;;;;7.13;3.17;;;;;;;;;;5037371;28;20156;-25
2022/12/24 02:57:36;;;;;;;6.90;3.38;;;;;;;;;;5037551;28;20376;-24
2022/12/24 03:00:05;;;;;;;10.27;3.58;;;;;;;;;;5037573;28;20364;-29
2022/12/24 03:02:40;;;;;;;10.00;3.30;;;;;;;;;;5052451;28;20063;-24
2022/12/24 03:05:25;;;;;;;6.70;3.28;;;;;;;;;;5037479;28;20033;-23
2022/12/24 03:08:03;;;;;;;5.25;3.30;;;;;;;;;;5037359;28;20372;-23
2022/12/24 03:10:46;;;;;;;5.70;3.92;;;;;;;;;;5036915;28;20037;-23
2022/12/24 03:13:14;;;;;;;4.95;2.78;;;;;;;;;;5037090;28;20112;-25
2022/12/24 03:15:41;;;;;;;7.32;3.10;;;;;;;;;;5037233;28;20371;-23
2022/12/24 03:18:09;;;;;;;5.60;3.20;;;;;;;;;;5037171;28;20041;-26
2022/12/24 03:20:43;;;;;;;7.43;3.85;;;;;;;;;;5036862;28;20060;-23
2022/12/24 03:23:09;;;;;;;6.45;2.47;;;;;;;;;;5036841;28;20116;-23
2022/12/24 03:25:38;;;;;;;7.70;3.05;;;;;;;;;;5036800;28;20460;-23
2022/12/24 03:28:04;;;;;;;10.20;3.45;;;;;;;;;;5036994;28;20029;-23
2022/12/24 03:30:30;;;;;;;4.93;3.05;;;;;;;;;;5036710;28;20040;-23
2022/12/24 03:32:57;;;;;;;5.72;2.97;;;;;;;;;;5036350;28;20337;-26
2022/12/24 03:35:23;;;;;;;6.35;2.97;;;;;;;;;;5052307;28;20360;-23
2022/12/24 03:37:49;;;;;;;6.82;2.83;;;;;;;;;;5037055;28;20029;-23
2022/12/24 03:40:15;;;;;;;7.07;3.05;;;;;;;;;;5036528;28;20440;-22
2022/12/24 03:42:41;;;;;;;6.68;3.05;;;;;;;;;;5036934;28;20023;-23
2022/12/24 03:45:08;;;;;;;6.80;3.25;;;;;;;;;;5036638;28;20365;-24
2022/12/24 03:47:34;;;;;;;5.28;2.58;;;;;;;;;;5036350;28;20105;-23
2022/12/24 03:50:00;;;;;;;8.20;4.57;;;;;;;;;;5036514;28;20429;-23
2022/12/24 03:52:27;;;;;;;6.53;3.30;;;;;;;;;;5036197;28;20104;-22
2022/12/24 03:54:53;;;;;;;5.18;2.92;;;;;;;;;;5036507;28;20044;-29
2022/12/24 03:57:19;;;;;;;6.35;3.00;;;;;;;;;;5036120;28;20033;-26
2022/12/24 03:59:45;;;;;;;5.47;2.97;;;;;;;;;;5036133;28;20044;-24
2022/12/24 04:02:11;;;;;;;4.72;2.63;;;;;;;;;;5035983;28;20025;-23
2022/12/24 04:04:37;;;;;;;4.55;2.95;;;;;;;;;;5035871;28;20396;-22
2022/12/24 04:07:04;;;;;;;10.63;3.20;;;;;;;;;;5036511;28;20045;-23
2022/12/24 04:09:31;;;;;;;5.18;2.70;;;;;;;;;;5036105;28;20037;-23
2022/12/24 04:11:57;;;;;;;5.82;3.15;;;;;;;;;;5036113;28;20164;-23
2022/12/24 04:14:24;;;;;;;4.22;2.53;;;;;;;;;;5035862;28;20105;-27
2022/12/24 04:16:50;;;;;;;6.38;3.30;;;;;;;;;;5036068;28;20021;-23
2022/12/24 04:19:16;;;;;;;7.15;2.70;;;;;;;;;;5035943;28;20047;-26
2022/12/24 04:21:42;;;;;;;5.35;3.13;;;;;;;;;;5035942;28;20044;-22
2022/12/24 04:24:08;;;;;;;5.88;2.95;;;;;;;;;;5035521;28;20068;-23
2022/12/24 04:26:34;;;;;;;5.88;2.97;;;;;;;;;;5035630;28;20112;-24
2022/12/24 04:29:00;;;;;;;6.45;3.13;;;;;;;;;;5036026;28;20048;-25
2022/12/24 04:31:27;;;;;;;5.10;2.70;;;;;;;;;;5035764;28;20029;-22
2022/12/24 04:33:53;;;;;;;4.38;3.00;;;;;;;;;;5036455;28;20086;-25
2022/12/24 04:36:20;;;;;;;4.03;2.75;;;;;;;;;;5035967;28;20460;-22
2022/12/24 04:38:47;;;;;;;5.82;2.78;;;;;;;;;;5035686;28;20337;-22
2022/12/24 04:41:15;;;;;;;6.60;3.45;;;;;;;;;;5035652;28;20032;-23
2022/12/24 04:43:41;;;;;;;5.43;2.78;;;;;;;;;;5034454;28;20017;-26
2022/12/24 04:46:09;;;;;;;4.47;2.63;;;;;;;;;;5035569;28;20372;-23
2022/12/24 04:48:35;;;;;;;6.63;3.03;;;;;;;;;;5035529;28;20025;-22
2022/12/24 04:51:02;;;;;;;5.20;3.03;;;;;;;;;;5035899;28;20051;-23
2022/12/24 04:53:28;;;;;;;4.20;2.80;;;;;;;;;;5035323;28;20045;-23
2022/12/24 04:55:55;;;;;;;4.65;2.90;;;;;;;;;;5035105;28;20511;-24
2022/12/24 04:58:21;;;;;;;4.47;2.65;;;;;;;;;;5035061;28;20108;-24
2022/12/24 05:00:47;;;;;;;5.15;3.20;;;;;;;;;;5035264;28;20033;-24
2022/12/24 05:03:13;;;;;;;6.93;2.67;;;;;;;;;;5034967;28;20041;-23
2022/12/24 05:05:39;;;;;;;4.20;2.75;;;;;;;;;;5034929;28;20025;-23
2022/12/24 05:08:06;;;;;;;3.78;2.17;;;;;;;;;;5034968;28;20056;-23
2022/12/24 05:10:32;;;;;;;4.03;2.65;;;;;;;;;;5035071;28;20128;-25
2022/12/24 05:12:58;;;;;;;7.65;3.63;;;;;;;;;;5050405;28;20040;-23
2022/12/24 05:15:24;;;;;;;5.32;2.95;;;;;;;;;;5034834;28;20399;-22
2022/12/24 05:17:50;;;;;;;5.18;2.85;;;;;;;;;;5035072;28;20053;-23
2022/12/24 05:20:17;;;;;;;4.18;2.60;;;;;;;;;;5035028;28;20032;-23
2022/12/24 05:28:16;;;;;;;5.20;2.85;;;;;;;;;;5034960;28;20136;-24
2022/12/24 05:30:42;;;;;;;7.88;2.50;;;;;;;;;;5034576;28;20364;-23
2022/12/24 05:33:09;;;;;;;4.90;2.55;;;;;;;;;;5034186;28;20034;-25
2022/12/24 05:35:35;;;;;;;4.25;2.75;;;;;;;;;;5035074;28;20022;-23
2022/12/24 05:38:01;;;;;;;4.13;2.80;;;;;;;;;;5034845;28;20025;-23
2022/12/24 05:40:27;;;;;;;5.38;2.60;;;;;;;;;;5034541;28;20155;-23
2022/12/24 05:42:53;;;;;;;4.70;2.72;;;;;;;;;;5034492;28;20029;-26
2022/12/24 05:45:19;;;;;;;7.18;3.70;;;;;;;;;;5034450;28;20044;-23
2022/12/24 05:47:46;;;;;;;6.55;2.92;;;;;;;;;;5034492;28;20030;-28
2022/12/24 05:50:12;;;;;;;4.93;2.92;;;;;;;;;;5034897;28;20052;-23
2022/12/24 05:52:38;;;;;;;6.25;2.95;;;;;;;;;;5034657;28;20483;-22
2022/12/24 05:55:04;;;;;;;4.90;2.60;;;;;;;;;;5036656;28;20026;-23
2022/12/24 05:57:31;;;;;;;2.97;2.53;;;;;;;;;;5038370;28;20104;-23
2022/12/24 05:59:57;;;;;;;5.55;2.75;;;;;;;;;;5038420;28;20029;-22
2022/12/24 06:02:23;;;;;;;4.45;2.53;;;;;;;;;;5038609;28;20029;-24
2022/12/24 06:04:49;;;;;;;3.63;2.95;;;;;;;;;;5038303;28;20033;-22
2022/12/24 06:07:15;;;;;;;5.78;2.38;;;;;;;;;;5038268;28;20030;-23
2022/12/24 06:09:41;;;;;;;4.80;2.50;;;;;;;;;;5038154;28;20372;-23
2022/12/24 06:12:07;;;;;;;5.07;2.90;;;;;;;;;;5038116;28;20105;-23
2022/12/24 06:14:33;;;;;;;5.63;3.10;;;;;;;;;;5038141;28;20452;-22
2022/12/24 06:17:00;;;;;;;5.85;3.03;;;;;;;;;;5038304;28;20032;-23
2022/12/24 06:19:26;;;;;;;6.45;2.83;;;;;;;;;;5038281;28;20108;-23
2022/12/24 06:21:52;;;;;;;7.70;3.22;;;;;;;;;;5038460;28;20057;-25
2022/12/24 06:24:18;;;;;;;7.88;2.90;;;;;;;;;;5038238;28;20033;-23
2022/12/24 06:26:44;;;;;;;8.95;4.10;;;;;;;;;;5037897;28;20029;-24
2022/12/24 06:29:10;;;;;;;6.05;2.78;;;;;;;;;;5038093;28;20404;-22
2022/12/24 06:31:37;;;;;;;6.20;2.55;;;;;;;;;;5053505;28;20036;-22
2022/12/24 06:34:03;;;;;;;7.15;2.90;;;;;;;;;;5037716;28;20029;-23
2022/12/24 06:36:29;;;;;;;4.82;3.63;;;;;;;;;;5037747;28;20475;-23
2022/12/24 06:38:55;;;;;;;5.80;3.00;;;;;;;;;;5038471;28;20436;-23
2022/12/24 06:41:22;;;;;;;6.18;2.90;;;;;;;;;;5037626;28;20021;-23
2022/12/24 06:43:49;;;;;;;6.97;3.10;;;;;;;;;;5037741;28;20048;-24
2022/12/24 06:46:16;;;;;;;4.13;2.30;;;;;;;;;;5037819;28;20025;-23
2022/12/24 06:48:43;;;;;;;5.30;2.60;;;;;;;;;;5037475;28;20562;-22
2022/12/24 06:51:09;;;;;;;4.10;2.85;;;;;;;;;;5037325;28;20064;-23
2022/12/24 06:53:35;;;;;;;4.68;2.50;;;;;;;;;;5037311;28;20420;-25
2022/12/24 06:56:05;;;;;;;5.97;3.60;;;;;;;;;;5037870;28;20040;-28
2022/12/24 06:58:32;;;;;;;5.53;2.60;;;;;;;;;;5037304;28;20025;-25
2022/12/24 07:01:00;;;;;;;4.25;2.72;;;;;;;;;;5037262;28;20033;-22
2022/12/24 07:03:26;;;;;;;7.40;3.00;;;;;;;;;;5037036;28;20049;-23
2022/12/24 07:05:53;;;;;;;4.10;2.95;;;;;;;;;;5051931;28;20045;-22
2022/12/24 07:08:19;;;;;;;6.47;2.92;;;;;;;;;;5037117;28;20036;-25
2022/12/24 07:10:45;;;;;;;5.05;2.60;;;;;;;;;;5037289;28;20423;-23
2022/12/24 07:13:12;;;;;;;4.07;2.35;;;;;;;;;;5036976;28;20033;-23
2022/12/24 07:15:38;;;;;;;4.80;2.47;;;;;;;;;;5036970;28;20026;-23
2022/12/24 07:18:04;;;;;;;7.95;2.75;;;;;;;;;;5037002;28;20021;-25
2022/12/24 07:20:30;;;;;;;3.90;2.83;;;;;;;;;;5037180;28;20083;-23
2022/12/24 07:22:56;;;;;;;7.15;4.03;;;;;;;;;;5036826;28;20091;-23
2022/12/24 07:25:22;;;;;;;7.10;2.75;;;;;;;;;;5037358;28;20437;-22
2022/12/24 07:27:48;;;;;;;2.65;2.28;;;;;;;;;;5037281;28;20029;-22
2022/12/24 07:30:15;;;;;;;4.78;2.70;;;;;;;;;;5036938;28;20090;-24
2022/12/24 07:32:41;;;;;;;5.28;3.10;;;;;;;;;;5036623;28;20104;-23
2022/12/24 07:35:07;;;;;;;5.15;2.78;;;;;;;;;;5036646;28;20453;-22
2022/12/24 07:37:33;;;;;;;5.78;2.45;;;;;;;;;;5036596;28;20025;-22
2022/12/24 07:40:00;;;;;;;4.90;2.70;;;;;;;;;;5036566;28;20116;-26
2022/12/24 07:42:26;;;;;;;5.75;2.47;;;;;;;;;;5036658;28;20026;-22
2022/12/24 07:44:52;;;;;;;4.05;2.00;;;;;;;;;;5036444;28;20033;-24
2022/12/24 07:47:19;;;;;;;4.63;2.72;;;;;;;;;;5036684;28;20415;-24
2022/12/24 07:49:45;;;;;;;8.13;4.13;;;;;;;;;;5036489;28;20109;-24
2022/12/24 07:52:11;;;;;;;5.25;2.70;;;;;;;;;;5036193;28;20029;-23
2022/12/24 07:54:37;;;;;;;4.07;2.50;;;;;;;;;;5036243;28;20053;-23
2022/12/24 07:57:03;;;;;;;3.40;2.67;;;;;;;;;;5036755;28;20314;-23
2022/12/24 07:59:30;;;;;;;2.85;2.30;;;;;;;;;;5035563;28;20113;-22
2022/12/24 08:01:56;;;;;;;5.40;3.33;;;;;;;;;;5036046;28;20457;-23
2022/12/24 08:04:22;;;;;;;4.32;3.20;;;;;;;;;;5035981;28;20052;-25
2022/12/24 08:06:48;;;;;;;4.68;3.15;;;;;;;;;;5036046;28;20037;-22
2022/12/24 08:09:15;;;;;;;5.25;2.95;;;;;;;;;;5035907;28;20037;-22
2022/12/24 08:11:41;;;;;;;5.45;3.15;;;;;;;;;;5035822;28;20036;-24
2022/12/24 08:14:07;;;;;;;3.15;2.15;;;;;;;;;;5035806;28;20036;-25
2022/12/24 08:16:33;;;;;;;3.40;2.38;;;;;;;;;;5036063;28;20025;-23
2022/12/24 08:18:59;;;;;;;4.07;2.33;;;;;;;;;;5036279;28;20036;-23
2022/12/24 08:21:25;;;;;;;2.65;2.05;;;;;;;;;;5035756;28;20022;-22
2022/12/24 08:23:51;;;;;;;5.53;2.40;;;;;;;;;;5035714;28;20032;-23
2022/12/24 08:26:18;;;;;;;5.00;2.85;;;;;;;;;;5035690;28;20448;-24
2022/12/24 08:28:44;;;;;;;3.28;2.28;;;;;;;;;;5035566;28;20474;-23
2022/12/24 08:31:10;;;;;;;5.20;2.55;;;;;;;;;;5035774;28;20039;-23
2022/12/24 08:33:36;;;;;;;4.20;2.40;;;;;;;;;;5035396;28;20095;-24
2022/12/24 08:36:02;;;;;;;5.03;2.58;;;;;;;;;;5035714;28;20029;-23
2022/12/24 08:38:29;;;;;;;5.05;2.33;;;;;;;;;;5035948;28;20025;-22
2022/12/24 08:40:56;;;;;;;3.78;2.15;;;;;;;;;;5035416;28;20452;-23
2022/12/24 08:43:24;;;;;;;5.60;3.17;;;;;;;;;;5035199;28;20040;-26
2022/12/24 08:45:50;;;;;;;3.35;2.33;;;;;;;;;;5035542;28;20395;-25
2022/12/24 08:48:17;;;;;;;4.03;2.65;;;;;;;;;;5035248;28;20029;-25
2022/12/24 08:50:43;;;;;;;9.07;3.72;;;;;;;;;;5035433;28;20033;-23
2022/12/24 08:53:09;;;;;;;4.03;2.70;;;;;;;;;;5035413;28;20333;-23
2022/12/24 08:55:36;;;;;;;3.83;2.70;;;;;;;;;;5035131;28;20029;-22
2022/12/24 08:58:02;;;;;;;4.75;2.90;;;;;;;;;;5035337;28;20368;-23
2022/12/24 09:00:29;;;;;;;5.05;2.95;;;;;;;;;;5035287;28;20033;-23
2022/12/24 09:02:55;;;;;;;4.18;2.90;;;;;;;;;;5050826;28;20037;-24
2022/12/24 09:05:22;;;;;;;8.90;3.67;;;;;;;;;;5035316;28;20087;-23
2022/12/24 09:07:48;;;;;;;6.32;2.58;;;;;;;;;;5035750;28;20029;-23
2022/12/24 09:10:14;;;;;;;5.18;2.72;;;;;;;;;;5035134;28;20355;-23
2022/12/24 09:12:40;;;;;;;4.13;2.13;;;;;;;;;;5034713;28;20030;-23
2022/12/24 09:15:07;;;;;;;3.88;2.40;;;;;;;;;;5034845;28;20092;-24
2022/12/24 09:17:33;;;;;;;4.15;2.53;;;;;;;;;;5034783;28;20029;-21
2022/12/24 09:19:59;;;;;;;3.42;2.30;;;;;;;;;;5034734;28;20036;-20
2022/12/24 09:22:25;;;;;;;4.82;2.40;;;;;;;;;;5034956;28;20029;-24
2022/12/24 09:24:53;;;;;;;7.18;2.80;;;;;;;;;;5034659;28;20061;-25
2022/12/24 09:27:19;;;;;;;6.53;3.95;;;;;;;;;;5034676;28;20025;-20
2022/12/24 09:29:45;;;;;;;3.83;2.67;;;;;;;;;;5049726;28;20060;-22
2022/12/24 09:32:12;;;;;;;4.68;2.78;;;;;;;;;;5034842;28;20455;-23
2022/12/24 09:34:39;;;;;;;7.07;2.92;;;;;;;;;;5034642;28;20529;-26
2022/12/24 09:37:05;;;;;;;2.88;2.50;;;;;;;;;;5034542;28;20029;-25
2022/12/24 09:39:31;;;;;;;3.20;2.25;;;;;;;;;;5034548;28;20029;-23
2022/12/24 09:42:08;;;;;;;3.00;2.20;;;;;;;;;;5033550;28;20041;-24
2022/12/24 09:44:40;;;;;;;5.13;2.53;;;;;;;;;;5035104;28;20033;-23
2022/12/24 09:47:27;;;;;;;3.85;2.28;;;;;;;;;;5034468;28;20025;-24
2022/12/24 09:49:54;;;;;;;4.32;2.58;;;;;;;;;;5034438;28;20345;-23
2022/12/24 09:52:26;;;;;;;4.07;3.00;;;;;;;;;;5034875;28;20043;-22
2022/12/24 09:55:05;;;;;;;3.72;2.17;;;;;;;;;;5050153;28;20047;-23
2022/12/24 09:57:37;;;;;;;4.38;2.83;;;;;;;;;;5034962;28;20152;-25
2022/12/24 10:00:04;;;;;;;3.85;2.78;;;;;;;;;;5034639;28;20029;-23
2022/12/24 10:02:32;;;;;;;4.43;2.72;;;;;;;;;;5034553;28;20021;-23
2022/12/24 10:04:58;;;;;;;3.67;2.78;;;;;;;;;;5034659;28;20040;-23
2022/12/24 10:07:42;;;;;;;3.78;2.35;;;;;;;;;;5034842;28;20065;-23
2022/12/24 10:10:23;;;;;;;4.13;2.67;;;;;;;;;;5034738;28;20099;-25
2022/12/24 10:13:06;;;;;;;3.67;2.53;;;;;;;;;;5034181;28;20021;-26
2022/12/24 10:15:37;;;;;;;3.63;2.40;;;;;;;;;;5034565;28;20025;-22
2022/12/24 10:18:12;;;;;;;6.83;2.20;;;;;;;;;;5034600;28;20025;-24
2022/12/24 10:20:42;;;;;;;5.57;2.90;;;;;;;;;;5049796;28;20083;-25
2022/12/24 10:23:11;;;;;;;3.95;2.28;;;;;;;;;;5034410;28;20569;-22
2022/12/24 10:25:54;;;;;;;5.28;2.80;;;;;;;;;;5034171;28;20037;-23
2022/12/24 10:28:29;;;;;;;5.35;2.70;;;;;;;;;;5034425;28;20033;-23
2022/12/24 10:30:59;;;;;;;3.85;2.35;;;;;;;;;;5034341;28;20095;-25
2022/12/24 10:33:30;;;;;;;5.95;2.78;;;;;;;;;;5034066;28;20152;-25
2022/12/24 10:35:57;;;;;;;3.22;2.50;;;;;;;;;;5034628;28;20036;-27
2022/12/24 10:38:24;;;;;;;4.80;2.80;;;;;;;;;;5034300;28;20022;-22
2022/12/24 10:40:52;;;;;;;2.42;2.08;;;;;;;;;;5034152;28;20033;-25
2022/12/24 10:43:20;;;;;;;3.60;2.45;;;;;;;;;;5037690;28;20061;-23
2022/12/24 10:45:48;;;;;;;2.78;1.95;;;;;;;;;;5037536;28;20040;-22
2022/12/24 10:48:19;;;;;;;5.32;3.25;;;;;;;;;;5037543;28;20492;-23
2022/12/24 10:51:06;;;;;;;4.88;2.45;;;;;;;;;;5037484;28;20036;-24
2022/12/24 10:53:32;;;;;;;4.88;2.20;;;;;;;;;;5037451;28;20105;-23
2022/12/24 10:56:09;;;;;;;5.53;2.63;;;;;;;;;;5037691;28;20364;-22
2022/12/24 10:58:35;;;;;;;6.57;3.13;;;;;;;;;;5053014;28;20032;-24
2022/12/24 11:01:02;;;;;;;3.67;2.30;;;;;;;;;;5037557;28;20041;-22
2022/12/24 11:03:30;;;;;;;5.47;2.53;;;;;;;;;;5036999;28;20038;-23
2022/12/24 11:06:02;;;;;;;4.82;2.65;;;;;;;;;;5037164;28;20040;-22
2022/12/24 11:08:28;;;;;;;3.33;2.00;;;;;;;;;;5037196;28;20026;-23
2022/12/24 11:10:59;;;;;;;4.50;2.75;;;;;;;;;;5037291;28;20341;-22
2022/12/24 11:13:27;;;;;;;5.00;2.58;;;;;;;;;;5036973;28;20448;-23
2022/12/24 11:16:12;;;;;;;5.55;2.72;;;;;;;;;;5052693;28;20021;-23
2022/12/24 11:18:44;;;;;;;4.32;2.53;;;;;;;;;;5037245;28;20057;-24
2022/12/24 11:21:11;;;;;;;5.47;2.92;;;;;;;;;;5037249;28;20021;-24
2022/12/24 11:23:37;;;;;;;3.78;2.45;;;;;;;;;;5036854;28;20025;-25
2022/12/24 11:26:03;;;;;;;4.35;2.83;;;;;;;;;;5037375;28;20060;-22
2022/12/24 11:28:32;;;;;;;4.03;2.20;;;;;;;;;;5037552;28;20037;-24
2022/12/24 11:30:59;;;;;;;5.47;2.60;;;;;;;;;;5036653;28;20519;-23
2022/12/24 11:33:26;;;;;;;3.03;2.30;;;;;;;;;;5036635;28;20036;-23
2022/12/24 11:35:54;;;;;;;4.32;2.22;;;;;;;;;;5037417;28;20374;-25
2022/12/24 11:38:21;;;;;;;3.85;2.15;;;;;;;;;;5036605;28;20033;-23
2022/12/24 11:40:49;;;;;;;3.17;2.20;;;;;;;;;;5036811;28;20330;-22
2022/12/24 11:43:19;;;;;;;4.78;2.90;;;;;;;;;;5036710;28;20100;-23
2022/12/24 11:45:55;;;;;;;4.40;2.75;;;;;;;;;;5036702;28;20361;-26
2022/12/24 11:48:26;;;;;;;5.38;2.95;;;;;;;;;;5036989;28;20025;-24
2022/12/24 11:50:57;;;;;;;5.30;2.67;;;;;;;;;;5036603;28;20105;-24
2022/12/24 11:53:25;;;;;;;3.20;2.43;;;;;;;;;;5035922;28;20025;-23
2022/12/24 11:56:00;;;;;;;4.07;2.33;;;;;;;;;;5036489;28;20033;-25
2022/12/24 11:58:26;;;;;;;2.97;2.22;;;;;;;;;;5036196;28;20160;-27
2022/12/24 12:00:55;;;;;;;4.88;2.53;;;;;;;;;;5051799;28;20041;-24
2022/12/24 12:03:42;;;;;;;3.55;2.55;;;;;;;;;;5035831;28;20465;-25
2022/12/24 12:06:19;;;;;;;4.97;2.53;;;;;;;;;;5051700;28;20163;-23
2022/12/24 12:08:46;;;;;;;4.75;2.65;;;;;;;;;;5036349;28;20041;-24
2022/12/24 12:11:13;;;;;;;2.70;2.17;;;;;;;;;;5035937;28;20137;-23
2022/12/24 12:13:43;;;;;;;5.20;2.85;;;;;;;;;;5035852;28;20026;-23
2022/12/24 12:16:23;;;;;;;4.10;2.38;;;;;;;;;;5035920;28;20036;-23
2022/12/24 12:18:59;;;;;;;4.10;2.40;;;;;;;;;;5036407;28;20022;-24
2022/12/24 12:21:34;;;;;;;5.28;3.38;;;;;;;;;;5036106;28;20049;-24
2022/12/24 12:24:06;;;;;;;3.63;2.17;;;;;;;;;;5035717;28;20461;-24
2022/12/24 12:26:33;;;;;;;3.03;2.17;;;;;;;;;;5035990;28;20056;-28
2022/12/24 12:29:14;;;;;;;5.70;3.28;;;;;;;;;;5035632;28;20167;-28
2022/12/24 12:31:40;;;;;;;;;;;;;;;;;;5036607;28;20068;-25
2022/12/24 12:34:11;;;;;;;3.97;2.60;;;;;;;;;;5035488;28;20398;-22
2022/12/24 12:36:56;;;;;;;4.93;2.60;;;;;;;;;;5035512;28;20056;-23
2022/12/24 12:39:22;;;;;;;6.70;2.58;;;;;;;;;;5035408;28;20175;-27
2022/12/24 12:42:01;;;;;;;4.25;2.58;;;;;;;;;;5035575;28;20037;-23
2022/12/24 12:44:47;;;;;;;4.00;2.70;;;;;;;;;;5035370;28;20040;-23
2022/12/24 12:47:28;;;;;;;4.75;3.15;;;;;;;;;;5035892;28;20095;-24
2022/12/24 12:49:57;;;;;;;4.35;2.55;;;;;;;;;;5035178;28;20029;-22
2022/12/24 12:52:41;;;;;;;5.65;2.72;;;;;;;;;;5035147;28;20156;-24
2022/12/24 12:55:18;;;;;;;4.53;2.35;;;;;;;;;;5035723;28;20029;-25
2022/12/24 12:57:46;;;;;;;3.58;2.30;;;;;;;;;;5035415;28;20026;-23
2022/12/24 13:00:16;;;;;;;3.42;2.47;;;;;;;;;;5035662;28;20037;-22
2022/12/24 13:02:59;;;;;;;3.47;2.28;;;;;;;;;;5035051;28;20366;-23
2022/12/24 13:05:43;;;;;;;3.63;2.30;;;;;;;;;;5034341;28;20091;-23
2022/12/24 13:08:12;;;;;;;3.97;2.42;;;;;;;;;;5034996;28;20037;-22
2022/12/24 13:10:38;;;;;;;3.85;2.42;;;;;;;;;;5034777;28;20045;-22
2022/12/24 13:13:11;;;;;;;5.10;2.30;;;;;;;;;;5034851;28;20440;-23
2022/12/24 13:15:47;;;;;;;5.43;3.00;;;;;;;;;;5034807;28;20116;-23
2022/12/24 13:18:13;;;;;;;4.65;2.90;;;;;;;;;;5034870;28;20017;-23
2022/12/24 13:20:42;;;;;;;4.78;2.45;;;;;;;;;;5035345;28;20029;-23
2022/12/24 13:23:15;;;;;;;5.82;2.33;;;;;;;;;;5034983;28;20384;-22
2022/12/24 13:25:43;;;;;;;5.15;2.35;;;;;;;;;;5034979;28;20033;-24
2022/12/24 13:28:16;;;;;;;4.38;2.53;;;;;;;;;;5034720;28;20353;-26
2022/12/24 13:30:43;;;;;;;3.80;3.10;;;;;;;;;;5034536;28;20045;-23
2022/12/24 13:33:13;;;;;;;3.40;2.00;;;;;;;;;;5034935;28;20014;-23
2022/12/24 13:36:00;;;;;;;3.93;2.13;;;;;;;;;;5034915;28;20044;-23
2022/12/24 13:38:29;;;;;;;3.60;2.20;;;;;;;;;;5034886;28;20025;-23
2022/12/24 13:40:55;;;;;;;4.40;2.42;;;;;;;;;;5034836;28;20037;-22
2022/12/24 13:43:21;;;;;;;3.97;2.28;;;;;;;;;;5034525;28;20061;-24
2022/12/24 13:45:51;;;;;;;3.75;2.38;;;;;;;;;;5034780;28;20030;-23
2022/12/24 13:48:28;;;;;;;2.75;1.88;;;;;;;;;;5034550;28;20040;-25
2022/12/24 13:50:55;;;;;;;4.53;2.80;;;;;;;;;;5034708;28;20044;-24
2022/12/24 13:53:22;;;;;;;3.58;2.50;;;;;;;;;;5034400;28;20026;-23
2022/12/24 13:55:51;;;;;;;3.30;2.20;;;;;;;;;;5034702;28;20451;-30
2022/12/24 13:58:20;;;;;;;4.68;2.88;;;;;;;;;;5034711;28;20208;-25
2022/12/24 14:01:21;;;;;;;4.95;2.40;;;;;;;;;;5035266;28;20076;-24
2022/12/24 14:03:47;;;;;;;;;;;;;;;;;;4993611;28;20129;-25
2022/12/24 14:06:31;;;;;;;4.10;2.50;;;;;;;;;;5010492;28;19956;-23
2022/12/24 14:09:17;;;;;;;5.45;3.75;;;;;;;;;;5014902;28;20533;-23
2022/12/24 14:12:10;;;;;;;4.35;2.35;;;;;;;;;;5014460;28;20422;-26
2022/12/24 14:14:40;;;;;;;3.13;2.25;;;;;;;;;;5011155;28;20062;-22
2022/12/24 14:17:09;;;;;;;4.97;2.60;;;;;;;;;;5018273;28;20080;-23
2022/12/24 14:19:41;;;;;;;5.47;2.60;;;;;;;;;;5018571;28;20248;-24
2022/12/24 14:22:22;;;;;;;6.00;2.67;;;;;;;;;;5018691;28;20073;-22
2022/12/24 14:24:57;;;;;;;2.63;1.98;;;;;;;;;;5018466;28;20037;-23
2022/12/24 14:27:33;;;;;;;3.42;2.42;;;;;;;;;;5018192;28;20030;-23
2022/12/24 14:30:02;;;;;;;3.90;2.17;;;;;;;;;;5018310;28;20126;-22
2022/12/24 14:32:39;;;;;;;4.60;2.45;;;;;;;;;;5018252;28;20033;-23
2022/12/24 14:35:06;;;;;;;5.13;2.75;;;;;;;;;;5018277;28;20038;-25
2022/12/24 14:37:32;;;;;;;3.35;2.38;;;;;;;;;;5017961;28;20037;-28
2022/12/24 14:39:59;;;;;;;3.13;2.33;;;;;;;;;;5017912;28;20072;-28
2022/12/24 14:42:33;;;;;;;3.65;2.00;;;;;;;;;;5017763;28;20045;-25
2022/12/24 14:45:18;;;;;;;5.55;2.53;;;;;;;;;;5018127;28;20076;-23
2022/12/24 14:48:09;;;;;;;6.07;2.72;;;;;;;;;;5017730;28;20481;-22
2022/12/24 14:50:36;;;;;;;3.92;3.08;;;;;;;;;;5017691;28;20037;-23
2022/12/24 14:53:02;;;;;;;4.18;2.65;;;;;;;;;;5017766;28;20030;-26
2022/12/24 14:55:28;;;;;;;3.30;2.15;;;;;;;;;;5033156;28;20053;-26
2022/12/24 14:58:18;;;;;;;3.10;2.60;;;;;;;;;;5017845;28;20093;-24
2022/12/24 15:00:44;;;;;;;6.13;2.35;;;;;;;;;;5012310;28;20042;-23
2022/12/24 15:03:15;;;;;;;3.92;2.40;;;;;;;;;;5023833;28;20056;-26